sim
Sign-in with your pilot id or email,
or register
Callsign
Passwort

Schedule Details

Flight Number: OEO1654
Departure: Frankfurt Airport (EDDF) at 15:20
Arrival: Tromso Airport (ENTC) at 18:45

Weather Information
Getting current METAR information for EDDF 200150Z 05003KT 010V110 CAVOK 13/05 Q1016 NOSIG
Getting current METAR information for ENTC 200050Z 19015KT 9999 FEW013 SCT019 OVC026 06/03 Q1005 RMK WIND 2600FT 18024KT

Schedule Frequency

Route Map